createdAt,value
2022-10-14T00:01:31.338Z,11.20
2022-10-14T00:06:31.672Z,11.20
2022-10-14T00:11:33.453Z,11.20
2022-10-14T00:16:33.509Z,11.20
2022-10-14T00:21:32.182Z,11.20
2022-10-14T00:26:34.320Z,11.10
2022-10-14T00:31:32.819Z,11.10
2022-10-14T00:36:31.075Z,11.10
2022-10-14T00:41:32.627Z,11.10
2022-10-14T00:46:33.114Z,11.10
2022-10-14T00:51:32.460Z,11.00
2022-10-14T00:56:32.688Z,11.00
2022-10-14T01:01:30.732Z,10.90
2022-10-14T01:06:42.418Z,10.80
2022-10-14T01:12:04.176Z,10.80
2022-10-14T01:17:17.582Z,10.70
2022-10-14T01:22:22.605Z,10.70
2022-10-14T01:27:47.205Z,10.70
2022-10-14T01:32:58.704Z,10.70
2022-10-14T01:38:00.767Z,10.70
2022-10-14T01:43:02.052Z,10.70
2022-10-14T01:48:03.220Z,10.70
2022-10-14T01:53:05.494Z,10.60
2022-10-14T01:58:07.110Z,10.70
2022-10-14T02:03:07.401Z,10.50
2022-10-14T02:08:13.015Z,10.50
2022-10-14T02:13:34.911Z,10.50
2022-10-14T02:18:40.406Z,10.50
2022-10-14T02:23:43.898Z,10.40
2022-10-14T02:28:44.043Z,10.30
2022-10-14T02:33:48.504Z,10.30
2022-10-14T02:38:48.579Z,10.30
2022-10-14T02:43:48.639Z,10.40
2022-10-14T02:48:48.047Z,10.50
2022-10-14T02:53:46.515Z,10.60
2022-10-14T02:58:47.426Z,10.70
2022-10-14T03:03:47.110Z,10.80
2022-10-14T03:08:45.779Z,10.90
2022-10-14T03:13:43.825Z,11.00
2022-10-14T03:18:42.628Z,11.00
2022-10-14T03:23:52.618Z,11.00
2022-10-14T03:28:56.455Z,11.00
2022-10-14T03:34:00.714Z,10.90
2022-10-14T03:39:02.600Z,10.90
2022-10-14T03:44:20.133Z,10.80
2022-10-14T03:49:38.015Z,10.80
2022-10-14T03:54:45.047Z,10.70
2022-10-14T03:59:46.367Z,10.70
2022-10-14T04:04:44.881Z,10.70
2022-10-14T04:09:44.787Z,10.70
2022-10-14T04:14:43.277Z,10.60
2022-10-14T04:19:42.239Z,10.60
2022-10-14T04:24:40.339Z,10.60
2022-10-14T04:29:40.340Z,10.70
2022-10-14T04:34:47.726Z,10.70
2022-10-14T04:39:49.693Z,10.70
2022-10-14T04:44:51.150Z,10.70
2022-10-14T04:49:56.594Z,10.70
2022-10-14T04:54:55.237Z,10.80
2022-10-14T05:00:06.858Z,10.80
2022-10-14T05:05:25.505Z,10.80
2022-10-14T05:10:27.126Z,10.80
2022-10-14T05:15:27.872Z,10.80
2022-10-14T05:20:32.673Z,10.80
2022-10-14T05:25:30.887Z,10.80
2022-10-14T05:30:34.664Z,10.90
2022-10-14T05:35:57.519Z,11.00
2022-10-14T05:40:55.944Z,11.10
2022-10-14T05:45:55.595Z,11.10
2022-10-14T05:50:56.140Z,11.10
2022-10-14T05:56:03.094Z,11.10
2022-10-14T06:01:05.225Z,11.20
2022-10-14T06:06:03.672Z,11.30
2022-10-14T06:11:04.532Z,11.40
2022-10-14T06:16:06.727Z,11.40
2022-10-14T06:21:06.304Z,11.50
2022-10-14T06:26:06.609Z,11.60
2022-10-14T06:31:06.133Z,11.70
2022-10-14T06:36:05.994Z,11.80
2022-10-14T06:41:03.917Z,11.90
2022-10-14T06:46:02.096Z,12.00
2022-10-14T06:51:02.050Z,12.00
2022-10-14T06:56:01.460Z,12.00
2022-10-14T07:01:03.091Z,12.10
2022-10-14T07:06:04.486Z,12.20
2022-10-14T07:11:02.569Z,12.30
2022-10-14T07:16:00.690Z,12.40
2022-10-14T07:21:03.552Z,12.40
2022-10-14T07:26:02.160Z,12.40
2022-10-14T07:31:01.372Z,12.40
2022-10-14T07:36:03.918Z,12.40
2022-10-14T07:41:03.590Z,12.60
2022-10-14T07:46:03.933Z,12.80
2022-10-14T07:51:03.785Z,13.10
2022-10-14T07:56:01.660Z,13.40
2022-10-14T08:00:59.593Z,13.50
2022-10-14T08:06:03.547Z,13.60
2022-10-14T08:11:02.715Z,13.80
2022-10-14T08:16:00.785Z,14.00
2022-10-14T08:20:58.698Z,14.30
2022-10-14T08:25:57.927Z,14.90
2022-10-14T08:30:55.838Z,15.70
2022-10-14T08:35:54.251Z,17.10
2022-10-14T08:41:04.804Z,18.80
2022-10-14T08:46:12.701Z,19.60
2022-10-14T08:51:14.789Z,20.00
2022-10-14T08:56:15.762Z,19.90
2022-10-14T09:01:20.440Z,19.60
2022-10-14T09:06:25.430Z,19.00
2022-10-14T09:11:25.279Z,19.00
2022-10-14T09:16:26.172Z,18.70
2022-10-14T09:21:40.873Z,18.40
2022-10-14T09:26:50.093Z,18.30
2022-10-14T09:31:49.069Z,18.00
2022-10-14T09:36:49.841Z,18.50
2022-10-14T09:41:53.424Z,21.00
2022-10-14T09:46:54.768Z,22.40
2022-10-14T09:51:53.018Z,22.60
2022-10-14T09:57:00.757Z,23.20
2022-10-14T10:02:01.783Z,23.90
2022-10-14T10:07:01.631Z,23.00
2022-10-14T10:12:00.939Z,22.00
2022-10-14T10:17:23.179Z,20.80
2022-10-14T10:22:27.202Z,19.80
2022-10-14T10:27:29.084Z,19.40
2022-10-14T10:32:35.563Z,19.10
2022-10-14T10:37:41.791Z,19.00
2022-10-14T10:42:53.089Z,19.50
2022-10-14T10:48:01.112Z,21.00
2022-10-14T10:53:29.277Z,20.60
2022-10-14T10:58:42.397Z,20.40
2022-10-14T11:03:56.017Z,19.60
2022-10-14T11:09:20.170Z,19.00
2022-10-14T11:14:46.153Z,18.90
2022-10-14T11:19:51.399Z,19.40
2022-10-14T11:24:58.757Z,19.60
2022-10-14T11:35:29.255Z,19.70
2022-10-14T11:40:32.725Z,20.50
2022-10-14T11:45:52.225Z,20.80
2022-10-14T11:50:57.118Z,20.50
2022-10-14T11:56:03.706Z,20.20
2022-10-14T12:01:19.073Z,19.80
2022-10-14T12:06:22.981Z,19.50
2022-10-14T12:11:29.329Z,19.50
2022-10-14T12:16:27.776Z,19.40
2022-10-14T12:21:32.532Z,19.10
2022-10-14T12:26:46.730Z,18.90
2022-10-14T12:31:50.607Z,18.60
2022-10-14T12:36:50.730Z,18.40
2022-10-14T12:41:53.664Z,18.30
2022-10-14T12:46:53.592Z,18.40
2022-10-14T12:51:57.102Z,18.30
2022-10-14T12:56:59.637Z,18.40
2022-10-14T13:01:59.771Z,18.80
2022-10-14T13:07:42.643Z,19.00
2022-10-14T13:12:43.814Z,19.30
2022-10-14T13:17:46.175Z,19.40
2022-10-14T13:22:45.590Z,19.20
2022-10-14T13:27:58.244Z,19.20
2022-10-14T13:33:00.170Z,19.20
2022-10-14T13:38:01.865Z,19.20
2022-10-14T13:43:02.343Z,19.20
2022-10-14T13:48:01.487Z,19.10
2022-10-14T13:53:04.380Z,19.00
2022-10-14T13:58:13.213Z,19.00
2022-10-14T14:03:20.649Z,19.00
2022-10-14T14:08:41.541Z,18.80
2022-10-14T14:13:54.434Z,18.70
2022-10-14T14:19:07.688Z,18.50
2022-10-14T14:24:17.553Z,18.40
2022-10-14T14:29:24.892Z,18.40
2022-10-14T14:34:24.233Z,18.40
2022-10-14T14:39:26.351Z,18.50
2022-10-14T14:44:31.499Z,18.60
2022-10-14T14:49:33.998Z,18.80
2022-10-14T14:54:34.742Z,19.10
2022-10-14T14:59:36.560Z,19.40
2022-10-14T15:04:36.766Z,19.80
2022-10-14T15:09:39.796Z,19.50
2022-10-14T15:14:45.717Z,19.10
2022-10-14T15:19:43.696Z,18.80
2022-10-14T15:25:02.654Z,18.60
2022-10-14T15:30:35.466Z,19.60
2022-10-14T15:35:36.354Z,20.90
2022-10-14T15:40:36.924Z,20.70
2022-10-14T15:45:34.832Z,20.10
2022-10-14T15:50:36.090Z,19.50
2022-10-14T15:55:35.872Z,18.90
2022-10-14T16:00:37.909Z,18.50
2022-10-14T16:05:36.703Z,18.20
2022-10-14T16:10:38.103Z,18.00
2022-10-14T16:15:44.875Z,17.80
2022-10-14T16:20:42.837Z,17.50
2022-10-14T16:25:44.595Z,17.40
2022-10-14T16:30:48.554Z,17.20
2022-10-14T16:35:50.618Z,17.10
2022-10-14T16:40:55.568Z,17.00
2022-10-14T16:45:57.931Z,16.90
2022-10-14T16:50:55.967Z,16.80
2022-10-14T16:55:57.899Z,16.70
2022-10-14T17:00:57.402Z,16.60
2022-10-14T17:05:58.846Z,16.60
2022-10-14T17:10:58.763Z,16.60
2022-10-14T17:16:01.908Z,16.60
2022-10-14T17:21:01.282Z,16.60
2022-10-14T17:25:59.503Z,16.60
2022-10-14T17:30:57.847Z,16.50
2022-10-14T17:35:58.239Z,16.50
2022-10-14T17:41:02.976Z,16.50
2022-10-14T17:46:03.063Z,16.50
2022-10-14T17:51:02.469Z,16.40
2022-10-14T17:56:04.396Z,16.40
2022-10-14T18:01:06.238Z,16.30
2022-10-14T18:06:15.519Z,16.30
2022-10-14T18:11:14.322Z,16.20
2022-10-14T18:16:14.534Z,16.20
2022-10-14T18:21:14.805Z,16.10
2022-10-14T18:26:14.740Z,16.00
2022-10-14T18:31:14.453Z,15.90
2022-10-14T18:36:16.176Z,15.80
2022-10-14T18:41:15.699Z,15.80
2022-10-14T18:46:15.498Z,15.70
2022-10-14T18:51:16.553Z,15.60
2022-10-14T18:56:16.497Z,15.60
2022-10-14T19:01:15.632Z,15.60
2022-10-14T19:06:15.922Z,15.70
2022-10-14T19:11:17.976Z,15.50
2022-10-14T19:16:17.691Z,15.50
2022-10-14T19:21:19.376Z,15.50
2022-10-14T19:26:20.097Z,15.40
2022-10-14T19:31:21.447Z,15.40
2022-10-14T19:36:22.522Z,15.40
2022-10-14T19:41:20.709Z,15.30
2022-10-14T19:46:18.811Z,15.20
2022-10-14T19:51:18.193Z,15.10
2022-10-14T19:56:18.338Z,15.10
2022-10-14T20:01:18.925Z,15.00
2022-10-14T20:06:17.603Z,15.00
2022-10-14T20:11:19.076Z,15.00
2022-10-14T20:16:18.315Z,15.00
2022-10-14T20:21:17.553Z,15.00
2022-10-14T20:26:19.694Z,15.10
2022-10-14T20:31:19.921Z,15.10
2022-10-14T20:36:20.152Z,15.00
2022-10-14T20:41:21.800Z,15.10
2022-10-14T20:46:20.296Z,15.00
2022-10-14T20:51:19.583Z,15.10
2022-10-14T20:56:19.351Z,15.20
2022-10-14T21:01:18.466Z,15.30
2022-10-14T21:06:18.217Z,15.30
2022-10-14T21:11:18.186Z,15.30
2022-10-14T21:16:21.346Z,15.20
2022-10-14T21:21:19.775Z,15.10
2022-10-14T21:26:17.837Z,15.10
2022-10-14T21:31:19.041Z,15.00
2022-10-14T21:36:17.479Z,15.00
2022-10-14T21:41:15.478Z,15.00
2022-10-14T21:46:15.068Z,15.00
2022-10-14T21:51:16.808Z,15.00
2022-10-14T21:56:15.964Z,15.00
2022-10-14T22:01:16.406Z,15.00
2022-10-14T22:06:17.477Z,15.00
2022-10-14T22:11:20.650Z,15.00
2022-10-14T22:16:18.901Z,15.00
2022-10-14T22:21:19.873Z,15.00
2022-10-14T22:26:19.914Z,15.00
2022-10-14T22:31:21.343Z,14.90
2022-10-14T22:36:23.863Z,14.80
2022-10-14T22:41:23.491Z,14.80
2022-10-14T22:46:23.539Z,14.80
2022-10-14T22:51:24.775Z,14.80
2022-10-14T22:56:25.018Z,14.80
2022-10-14T23:01:23.841Z,14.70
2022-10-14T23:06:23.233Z,14.60
2022-10-14T23:11:23.191Z,14.70
2022-10-14T23:16:22.781Z,14.70
2022-10-14T23:21:23.670Z,14.70
2022-10-14T23:26:24.481Z,14.70
2022-10-14T23:31:24.641Z,14.70
2022-10-14T23:36:24.292Z,14.70
2022-10-14T23:41:23.833Z,14.70
2022-10-14T23:46:21.968Z,14.80
2022-10-14T23:51:20.030Z,14.80
2022-10-14T23:56:19.299Z,14.80
